VOBZ/VGA METAR and TAF weather

Enter ICAO airport designator
Station Type Date Time Source
VOBZ METAR 2019/08/25 14:30 UTC NOAA

VOBZ 251430Z 00000KT 5000 HZ SCT020 SCT100 30/25 Q1003 NOSIG


Station Type Date Time Source
VOBZ Decoded METAR 2019/08/25 14:30 UTC NOAA

Station name not available
Aug 25, 2019 - 10:30 AM EDT / 2019.08.25 1430 UTC
Wind: Calm:0
Visibility: 3 mile(s):0
Sky conditions: partly cloudy
Weather: haze
Temperature: 86 F (30 C)
Heat index: 96.8 F (36.0 C):1
Dew Point: 77 F (25 C)
Relative Humidity: 74%
Pressure (altimeter): 29.62 in. Hg (1003 hPa)
ob: VOBZ 251430Z 00000KT 5000 HZ SCT020 SCT100 30/25 Q1003 NOSIG
cycle: 14

Station Type Date Time Source
VOBZ TAF 2019/08/24 09:00 UTC NOAA

TAF VOBZ 240800Z 2409/2418 31012KT 6000 SCT020 BKN100
TEMPO 2409/2414 30015KT 1500 TSRA BKN010 FEW030CB OVC080

Example: see airport list